sensor_id;sensor_type;location;lat;lon;timestamp;temperature;humidity
63976;DHT22;50167;47.958;21.780;2022-10-31T00:00:07;20.05;59.77
63976;DHT22;50167;47.958;21.780;2022-10-31T00:02:34;20.18;58.95
63976;DHT22;50167;47.958;21.780;2022-10-31T00:05:00;19.52;58.52
63976;DHT22;50167;47.958;21.780;2022-10-31T00:07:26;18.39;60.97
63976;DHT22;50167;47.958;21.780;2022-10-31T00:09:52;17.47;63.22
63976;DHT22;50167;47.958;21.780;2022-10-31T00:12:18;17.64;66.16
63976;DHT22;50167;47.958;21.780;2022-10-31T00:14:44;18.46;64.38
63976;DHT22;50167;47.958;21.780;2022-10-31T00:17:10;18.94;62.76
63976;DHT22;50167;47.958;21.780;2022-10-31T00:19:36;19.24;61.97
63976;DHT22;50167;47.958;21.780;2022-10-31T00:22:02;19.49;61.11
63976;DHT22;50167;47.958;21.780;2022-10-31T00:24:28;19.69;60.59
63976;DHT22;50167;47.958;21.780;2022-10-31T00:26:54;19.88;59.74
63976;DHT22;50167;47.958;21.780;2022-10-31T00:29:20;20.04;59.29
63976;DHT22;50167;47.958;21.780;2022-10-31T00:31:46;19.55;58.55
63976;DHT22;50167;47.958;21.780;2022-10-31T00:34:12;18.55;60.38
63976;DHT22;50167;47.958;21.780;2022-10-31T00:36:38;17.69;62.72
63976;DHT22;50167;47.958;21.780;2022-10-31T00:39:03;17.91;65.76
63976;DHT22;50167;47.958;21.780;2022-10-31T00:41:29;18.86;63.65
63976;DHT22;50167;47.958;21.780;2022-10-31T00:43:56;19.32;61.75
63976;DHT22;50167;47.958;21.780;2022-10-31T00:46:22;19.53;60.48
63976;DHT22;50167;47.958;21.780;2022-10-31T00:48:48;19.69;59.90
63976;DHT22;50167;47.958;21.780;2022-10-31T00:51:14;19.93;58.28
63976;DHT22;50167;47.958;21.780;2022-10-31T00:53:40;19.22;57.45
63976;DHT22;50167;47.958;21.780;2022-10-31T00:56:06;18.16;60.15
63976;DHT22;50167;47.958;21.780;2022-10-31T00:58:33;17.32;62.69
63976;DHT22;50167;47.958;21.780;2022-10-31T01:00:59;17.50;65.82
63976;DHT22;50167;47.958;21.780;2022-10-31T01:03:28;18.35;64.58
63976;DHT22;50167;47.958;21.780;2022-10-31T01:06:02;19.02;62.75
63976;DHT22;50167;47.958;21.780;2022-10-31T01:08:29;19.46;61.09
63976;DHT22;50167;47.958;21.780;2022-10-31T01:11:08;19.72;60.11
63976;DHT22;50167;47.958;21.780;2022-10-31T01:13:35;19.88;59.17
63976;DHT22;50167;47.958;21.780;2022-10-31T01:16:04;19.42;57.92
63976;DHT22;50167;47.958;21.780;2022-10-31T01:18:32;18.33;59.79
63976;DHT22;50167;47.958;21.780;2022-10-31T01:21:05;17.49;62.24
63976;DHT22;50167;47.958;21.780;2022-10-31T01:23:32;17.73;65.10
63976;DHT22;50167;47.958;21.780;2022-10-31T01:26:18;18.55;63.49
63976;DHT22;50167;47.958;21.780;2022-10-31T01:28:51;19.07;61.81
63976;DHT22;50167;47.958;21.780;2022-10-31T01:31:21;19.32;61.19
63976;DHT22;50167;47.958;21.780;2022-10-31T01:33:48;19.41;60.77
63976;DHT22;50167;47.958;21.780;2022-10-31T01:36:29;19.52;60.47
63976;DHT22;50167;47.958;21.780;2022-10-31T01:38:55;19.59;60.18
63976;DHT22;50167;47.958;21.780;2022-10-31T01:41:26;19.81;59.97
63976;DHT22;50167;47.958;21.780;2022-10-31T01:44:01;20.05;59.38
63976;DHT22;50167;47.958;21.780;2022-10-31T01:46:36;19.57;58.52
63976;DHT22;50167;47.958;21.780;2022-10-31T01:49:01;18.49;60.63
63976;DHT22;50167;47.958;21.780;2022-10-31T01:51:33;17.66;62.72
63976;DHT22;50167;47.958;21.780;2022-10-31T01:54:04;18.05;65.59
63976;DHT22;50167;47.958;21.780;2022-10-31T01:56:32;18.87;63.36
63976;DHT22;50167;47.958;21.780;2022-10-31T01:59:02;19.27;62.01
63976;DHT22;50167;47.958;21.780;2022-10-31T02:01:29;19.50;61.21
63976;DHT22;50167;47.958;21.780;2022-10-31T02:03:55;19.72;60.45
63976;DHT22;50167;47.958;21.780;2022-10-31T02:06:38;19.87;59.74
63976;DHT22;50167;47.958;21.780;2022-10-31T02:09:06;20.00;59.41
63976;DHT22;50167;47.958;21.780;2022-10-31T02:11:34;19.52;58.39
63976;DHT22;50167;47.958;21.780;2022-10-31T02:14:03;18.48;60.40
63976;DHT22;50167;47.958;21.780;2022-10-31T02:16:29;17.63;62.72
63976;DHT22;50167;47.958;21.780;2022-10-31T02:18:56;17.81;65.55
63976;DHT22;50167;47.958;21.780;2022-10-31T02:28:00;19.53;60.95
63976;DHT22;50167;47.958;21.780;2022-10-31T02:30:27;19.72;60.20
63976;DHT22;50167;47.958;21.780;2022-10-31T02:33:26;19.87;59.59
63976;DHT22;50167;47.958;21.780;2022-10-31T02:36:14;19.15;59.15
63976;DHT22;50167;47.958;21.780;2022-10-31T02:39:06;17.94;61.51
63976;DHT22;50167;47.958;21.780;2022-10-31T02:47:22;18.43;64.46
63976;DHT22;50167;47.958;21.780;2022-10-31T02:50:08;18.93;62.69
63976;DHT22;50167;47.958;21.780;2022-10-31T02:52:35;19.27;61.51
63976;DHT22;50167;47.958;21.780;2022-10-31T03:00:33;19.59;60.18
63976;DHT22;50167;47.958;21.780;2022-10-31T03:03:21;19.77;59.78
63976;DHT22;50167;47.958;21.780;2022-10-31T03:11:13;18.12;61.14
63976;DHT22;50167;47.958;21.780;2022-10-31T03:14:12;17.33;63.19
63976;DHT22;50167;47.958;21.780;2022-10-31T03:18:59;18.49;64.17
63976;DHT22;50167;47.958;21.780;2022-10-31T03:21:30;19.01;62.44
63976;DHT22;50167;47.958;21.780;2022-10-31T03:23:58;19.38;61.13
63976;DHT22;50167;47.958;21.780;2022-10-31T03:26:25;19.63;60.37
63976;DHT22;50167;47.958;21.780;2022-10-31T03:29:03;19.78;59.50
63976;DHT22;50167;47.958;21.780;2022-10-31T03:31:34;19.17;58.94
63976;DHT22;50167;47.958;21.780;2022-10-31T03:34:03;17.98;60.93
63976;DHT22;50167;47.958;21.780;2022-10-31T03:36:31;17.08;63.55
63976;DHT22;50167;47.958;21.780;2022-10-31T03:39:01;17.40;66.97
63976;DHT22;50167;47.958;21.780;2022-10-31T03:41:32;18.36;64.81
63976;DHT22;50167;47.958;21.780;2022-10-31T03:44:06;18.95;62.78
63976;DHT22;50167;47.958;21.780;2022-10-31T03:46:32;19.27;61.39
63976;DHT22;50167;47.958;21.780;2022-10-31T03:48:59;19.49;60.62
63976;DHT22;50167;47.958;21.780;2022-10-31T03:51:34;19.74;59.80
63976;DHT22;50167;47.958;21.780;2022-10-31T03:54:32;19.93;59.17
63976;DHT22;50167;47.958;21.780;2022-10-31T03:57:11;19.18;58.68
63976;DHT22;50167;47.958;21.780;2022-10-31T03:59:44;18.07;61.04
63976;DHT22;50167;47.958;21.780;2022-10-31T04:02:13;17.18;63.47
63976;DHT22;50167;47.958;21.780;2022-10-31T04:04:39;17.46;66.30
63976;DHT22;50167;47.958;21.780;2022-10-31T04:07:06;18.19;64.58
63976;DHT22;50167;47.958;21.780;2022-10-31T04:09:36;18.53;62.87
63976;DHT22;50167;47.958;21.780;2022-10-31T04:12:06;18.73;62.68
63976;DHT22;50167;47.958;21.780;2022-10-31T04:14:37;18.95;62.22
63976;DHT22;50167;47.958;21.780;2022-10-31T04:17:09;19.15;61.31
63976;DHT22;50167;47.958;21.780;2022-10-31T04:19:35;19.28;60.95
63976;DHT22;50167;47.958;21.780;2022-10-31T04:22:02;19.44;60.50
63976;DHT22;50167;47.958;21.780;2022-10-31T04:24:28;19.53;60.18
63976;DHT22;50167;47.958;21.780;2022-10-31T04:26:54;19.65;59.81
63976;DHT22;50167;47.958;21.780;2022-10-31T04:29:20;19.70;59.51
63976;DHT22;50167;47.958;21.780;2022-10-31T04:31:46;19.25;58.69
63976;DHT22;50167;47.958;21.780;2022-10-31T04:34:12;18.21;60.59
63976;DHT22;50167;47.958;21.780;2022-10-31T04:36:38;17.37;62.90
63976;DHT22;50167;47.958;21.780;2022-10-31T04:39:04;17.49;65.92
63976;DHT22;50167;47.958;21.780;2022-10-31T04:41:30;18.21;64.67
63976;DHT22;50167;47.958;21.780;2022-10-31T04:43:56;18.69;63.25
63976;DHT22;50167;47.958;21.780;2022-10-31T04:46:22;18.97;62.25
63976;DHT22;50167;47.958;21.780;2022-10-31T04:48:48;19.14;61.75
63976;DHT22;50167;47.958;21.780;2022-10-31T04:51:14;19.34;61.08
63976;DHT22;50167;47.958;21.780;2022-10-31T04:53:40;19.46;60.47
63976;DHT22;50167;47.958;21.780;2022-10-31T04:56:07;19.66;60.03
63976;DHT22;50167;47.958;21.780;2022-10-31T04:58:33;19.70;59.55
63976;DHT22;50167;47.958;21.780;2022-10-31T05:00:59;19.22;58.93
63976;DHT22;50167;47.958;21.780;2022-10-31T05:03:25;18.22;60.77
63976;DHT22;50167;47.958;21.780;2022-10-31T05:05:51;17.36;63.01
63976;DHT22;50167;47.958;21.780;2022-10-31T05:08:17;17.52;65.91
63976;DHT22;50167;47.958;21.780;2022-10-31T05:10:43;18.31;64.66
63976;DHT22;50167;47.958;21.780;2022-10-31T05:13:09;18.81;62.69
63976;DHT22;50167;47.958;21.780;2022-10-31T05:15:35;19.15;61.51
63976;DHT22;50167;47.958;21.780;2022-10-31T05:18:01;19.36;60.71
63976;DHT22;50167;47.958;21.780;2022-10-31T05:20:29;19.52;60.18
63976;DHT22;50167;47.958;21.780;2022-10-31T05:22:57;19.67;59.78
63976;DHT22;50167;47.958;21.780;2022-10-31T05:25:26;19.81;59.28
63976;DHT22;50167;47.958;21.780;2022-10-31T05:27:54;19.22;58.68
63976;DHT22;50167;47.958;21.780;2022-10-31T05:30:25;18.11;60.65
63976;DHT22;50167;47.958;21.780;2022-10-31T05:32:51;17.16;63.36
63976;DHT22;50167;47.958;21.780;2022-10-31T05:35:31;17.42;66.48
63976;DHT22;50167;47.958;21.780;2022-10-31T05:37:54;18.25;64.56
63976;DHT22;50167;47.958;21.780;2022-10-31T05:40:22;18.70;63.17
63976;DHT22;50167;47.958;21.780;2022-10-31T05:42:53;19.02;62.17
63976;DHT22;50167;47.958;21.780;2022-10-31T05:45:21;19.27;61.12
63976;DHT22;50167;47.958;21.780;2022-10-31T05:50:25;19.60;59.86
63976;DHT22;50167;47.958;21.780;2022-10-31T05:53:02;19.78;59.78
63976;DHT22;50167;47.958;21.780;2022-10-31T05:55:29;19.93;59.24
63976;DHT22;50167;47.958;21.780;2022-10-31T05:57:56;19.41;58.44
63976;DHT22;50167;47.958;21.780;2022-10-31T06:00:26;18.33;60.38
63976;DHT22;50167;47.958;21.780;2022-10-31T06:03:00;17.46;62.85
63976;DHT22;50167;47.958;21.780;2022-10-31T06:05:28;17.74;65.76
63976;DHT22;50167;47.958;21.780;2022-10-31T06:07:54;18.63;63.80
63976;DHT22;50167;47.958;21.780;2022-10-31T06:10:20;19.15;61.86
63976;DHT22;50167;47.958;21.780;2022-10-31T06:12:47;19.31;60.85
63976;DHT22;50167;47.958;21.780;2022-10-31T06:15:14;19.38;60.31
63976;DHT22;50167;47.958;21.780;2022-10-31T06:17:40;19.46;59.84
63976;DHT22;50167;47.958;21.780;2022-10-31T06:20:07;19.53;59.78
63976;DHT22;50167;47.958;21.780;2022-10-31T06:22:34;19.67;59.50
63976;DHT22;50167;47.958;21.780;2022-10-31T06:25:00;19.24;59.10
63976;DHT22;50167;47.958;21.780;2022-10-31T06:27:26;18.18;60.89
63976;DHT22;50167;47.958;21.780;2022-10-31T06:29:53;17.33;63.14
63976;DHT22;50167;47.958;21.780;2022-10-31T06:32:19;17.62;65.89
63976;DHT22;50167;47.958;21.780;2022-10-31T06:34:45;18.43;63.73
63976;DHT22;50167;47.958;21.780;2022-10-31T06:37:14;18.90;62.12
63976;DHT22;50167;47.958;21.780;2022-10-31T06:39:40;19.17;61.47
63976;DHT22;50167;47.958;21.780;2022-10-31T06:42:06;19.39;60.66
63976;DHT22;50167;47.958;21.780;2022-10-31T06:44:33;19.62;60.07
63976;DHT22;50167;47.958;21.780;2022-10-31T06:46:59;19.77;59.22
63976;DHT22;50167;47.958;21.780;2022-10-31T06:49:25;19.27;58.41
63976;DHT22;50167;47.958;21.780;2022-10-31T06:51:51;18.22;60.01
63976;DHT22;50167;47.958;21.780;2022-10-31T06:54:17;17.35;62.63
63976;DHT22;50167;47.958;21.780;2022-10-31T06:56:46;17.50;65.77
63976;DHT22;50167;47.958;21.780;2022-10-31T06:59:13;18.43;64.41
63976;DHT22;50167;47.958;21.780;2022-10-31T07:01:39;19.15;62.34
63976;DHT22;50167;47.958;21.780;2022-10-31T07:04:06;19.62;60.69
63976;DHT22;50167;47.958;21.780;2022-10-31T07:06:33;19.96;59.70
63976;DHT22;50167;47.958;21.780;2022-10-31T07:08:59;19.60;57.89
63976;DHT22;50167;47.958;21.780;2022-10-31T07:11:25;18.55;60.07
63976;DHT22;50167;47.958;21.780;2022-10-31T07:13:51;17.63;62.34
63976;DHT22;50167;47.958;21.780;2022-10-31T07:16:17;17.74;65.40
63976;DHT22;50167;47.958;21.780;2022-10-31T07:18:43;18.62;64.29
63976;DHT22;50167;47.958;21.780;2022-10-31T07:21:09;19.25;61.69
63976;DHT22;50167;47.958;21.780;2022-10-31T07:23:35;19.57;60.74
63976;DHT22;50167;47.958;21.780;2022-10-31T07:26:01;19.80;60.02
63976;DHT22;50167;47.958;21.780;2022-10-31T07:28:28;20.00;59.15
63976;DHT22;50167;47.958;21.780;2022-10-31T07:30:57;19.38;58.46
63976;DHT22;50167;47.958;21.780;2022-10-31T07:33:24;18.21;60.71
63976;DHT22;50167;47.958;21.780;2022-10-31T07:35:52;17.30;63.05
63976;DHT22;50167;47.958;21.780;2022-10-31T07:38:18;17.57;66.05
63976;DHT22;50167;47.958;21.780;2022-10-31T07:40:49;18.52;63.96
63976;DHT22;50167;47.958;21.780;2022-10-31T07:43:16;19.08;62.15
63976;DHT22;50167;47.958;21.780;2022-10-31T07:45:42;19.46;60.32
63976;DHT22;50167;47.958;21.780;2022-10-31T07:48:08;19.80;59.49
63976;DHT22;50167;47.958;21.780;2022-10-31T07:50:34;19.39;58.02
63976;DHT22;50167;47.958;21.780;2022-10-31T07:53:08;18.33;60.07
63976;DHT22;50167;47.958;21.780;2022-10-31T07:55:35;17.46;62.09
63976;DHT22;50167;47.958;21.780;2022-10-31T07:58:08;17.60;64.59
63976;DHT22;50167;47.958;21.780;2022-10-31T08:00:36;18.53;62.16
63976;DHT22;50167;47.958;21.780;2022-10-31T08:03:07;19.04;59.87
63976;DHT22;50167;47.958;21.780;2022-10-31T08:05:34;19.25;60.17
63976;DHT22;50167;47.958;21.780;2022-10-31T08:08:00;19.45;58.71
63976;DHT22;50167;47.958;21.780;2022-10-31T08:10:27;18.97;57.85
63976;DHT22;50167;47.958;21.780;2022-10-31T08:15:54;17.12;62.11
63976;DHT22;50167;47.958;21.780;2022-10-31T08:18:21;17.50;63.91
63976;DHT22;50167;47.958;21.780;2022-10-31T08:20:49;18.46;62.10
63976;DHT22;50167;47.958;21.780;2022-10-31T08:23:15;18.97;59.94
63976;DHT22;50167;47.958;21.780;2022-10-31T08:25:41;19.31;58.76
63976;DHT22;50167;47.958;21.780;2022-10-31T08:28:10;18.94;57.76
63976;DHT22;50167;47.958;21.780;2022-10-31T08:30:37;18.02;59.05
63976;DHT22;50167;47.958;21.780;2022-10-31T08:33:14;17.25;61.12
63976;DHT22;50167;47.958;21.780;2022-10-31T08:35:41;16.61;62.99
63976;DHT22;50167;47.958;21.780;2022-10-31T08:38:22;17.23;65.23
63976;DHT22;50167;47.958;21.780;2022-10-31T08:40:48;18.60;61.90
63976;DHT22;50167;47.958;21.780;2022-10-31T08:43:16;19.34;59.01
63976;DHT22;50167;47.958;21.780;2022-10-31T08:45:47;19.07;57.25
63976;DHT22;50167;47.958;21.780;2022-10-31T08:48:14;18.08;58.68
63976;DHT22;50167;47.958;21.780;2022-10-31T08:50:42;17.25;61.23
63976;DHT22;50167;47.958;21.780;2022-10-31T08:53:18;16.68;64.11
63976;DHT22;50167;47.958;21.780;2022-10-31T08:55:43;17.63;64.35
63976;DHT22;50167;47.958;21.780;2022-10-31T08:58:14;18.60;61.48
63976;DHT22;50167;47.958;21.780;2022-10-31T09:00:40;19.14;59.05
63976;DHT22;50167;47.958;21.780;2022-10-31T09:03:22;18.80;57.42
63976;DHT22;50167;47.958;21.780;2022-10-31T09:05:54;17.80;59.54
63976;DHT22;50167;47.958;21.780;2022-10-31T09:08:18;16.97;61.48
63976;DHT22;50167;47.958;21.780;2022-10-31T09:10:44;16.36;63.65
63976;DHT22;50167;47.958;21.780;2022-10-31T09:13:15;17.04;67.06
63976;DHT22;50167;47.958;21.780;2022-10-31T09:15:44;18.26;64.10
63976;DHT22;50167;47.958;21.780;2022-10-31T09:18:13;18.93;61.86
63976;DHT22;50167;47.958;21.780;2022-10-31T09:20:41;19.32;60.01
63976;DHT22;50167;47.958;21.780;2022-10-31T09:23:20;19.72;58.56
63976;DHT22;50167;47.958;21.780;2022-10-31T09:25:49;19.24;57.27
63976;DHT22;50167;47.958;21.780;2022-10-31T09:28:18;18.26;58.50
63976;DHT22;50167;47.958;21.780;2022-10-31T09:30:47;17.50;60.56
63976;DHT22;50167;47.958;21.780;2022-10-31T09:33:14;16.88;62.36
63976;DHT22;50167;47.958;21.780;2022-10-31T09:35:41;17.42;64.52
63976;DHT22;50167;47.958;21.780;2022-10-31T09:38:13;18.64;63.22
63976;DHT22;50167;47.958;21.780;2022-10-31T09:44:05;19.76;56.62
63976;DHT22;50167;47.958;21.780;2022-10-31T09:52:29;16.63;63.27
63976;DHT22;50167;47.958;21.780;2022-10-31T09:55:09;17.35;66.28
63976;DHT22;50167;47.958;21.780;2022-10-31T09:57:35;18.52;63.33
63976;DHT22;50167;47.958;21.780;2022-10-31T10:00:05;19.08;59.34
63976;DHT22;50167;47.958;21.780;2022-10-31T10:02:49;18.67;59.19
63976;DHT22;50167;47.958;21.780;2022-10-31T10:05:48;17.64;61.12
63976;DHT22;50167;47.958;21.780;2022-10-31T10:08:20;16.84;63.16
63976;DHT22;50167;47.958;21.780;2022-10-31T10:11:03;17.53;65.37
63976;DHT22;50167;47.958;21.780;2022-10-31T10:22:47;19.18;56.99
63976;DHT22;50167;47.958;21.780;2022-10-31T10:25:21;17.84;60.64
63976;DHT22;50167;47.958;21.780;2022-10-31T10:31:02;17.72;67.52
63976;DHT22;50167;47.958;21.780;2022-10-31T10:33:39;18.73;62.09
63976;DHT22;50167;47.958;21.780;2022-10-31T10:36:14;19.27;59.53
63976;DHT22;50167;47.958;21.780;2022-10-31T10:39:00;19.62;58.25
63976;DHT22;50167;47.958;21.780;2022-10-31T10:41:31;18.76;58.21
63976;DHT22;50167;47.958;21.780;2022-10-31T10:44:05;17.78;56.75
63976;DHT22;50167;47.958;21.780;2022-10-31T10:46:55;17.12;61.50
63976;DHT22;50167;47.958;21.780;2022-10-31T10:49:51;16.49;64.14
63976;DHT22;50167;47.958;21.780;2022-10-31T10:55:32;18.52;63.16
63976;DHT22;50167;47.958;21.780;2022-10-31T10:58:19;19.25;60.69
63976;DHT22;50167;47.958;21.780;2022-10-31T11:00:43;19.74;58.87
63976;DHT22;50167;47.958;21.780;2022-10-31T11:03:12;19.22;58.04
63976;DHT22;50167;47.958;21.780;2022-10-31T11:05:55;18.21;60.08
63976;DHT22;50167;47.958;21.780;2022-10-31T11:08:48;17.26;62.49
63976;DHT22;50167;47.958;21.780;2022-10-31T11:11:28;17.76;65.05
63976;DHT22;50167;47.958;21.780;2022-10-31T11:14:00;18.52;62.41
63976;DHT22;50167;47.958;21.780;2022-10-31T11:16:36;18.98;60.97
63976;DHT22;50167;47.958;21.780;2022-10-31T11:21:47;19.69;58.58
63976;DHT22;50167;47.958;21.780;2022-10-31T11:24:20;19.18;57.61
63976;DHT22;50167;47.958;21.780;2022-10-31T11:26:49;18.09;60.01
63976;DHT22;50167;47.958;21.780;2022-10-31T11:29:22;17.29;61.96
63976;DHT22;50167;47.958;21.780;2022-10-31T11:31:53;17.50;64.68
63976;DHT22;50167;47.958;21.780;2022-10-31T11:34:36;18.49;63.15
63976;DHT22;50167;47.958;21.780;2022-10-31T11:37:26;19.07;60.61
63976;DHT22;50167;47.958;21.780;2022-10-31T11:40:05;19.45;59.74
63976;DHT22;50167;47.958;21.780;2022-10-31T11:42:39;19.84;58.74
63976;DHT22;50167;47.958;21.780;2022-10-31T11:45:29;19.35;57.54
63976;DHT22;50167;47.958;21.780;2022-10-31T11:47:56;18.25;59.65
63976;DHT22;50167;47.958;21.780;2022-10-31T11:50:40;17.53;61.66
63976;DHT22;50167;47.958;21.780;2022-10-31T11:53:17;16.91;63.72
63976;DHT22;50167;47.958;21.780;2022-10-31T11:55:45;17.53;66.18
63976;DHT22;50167;47.958;21.780;2022-10-31T11:58:24;18.63;64.08
63976;DHT22;50167;47.958;21.780;2022-10-31T12:00:54;19.29;61.83
63976;DHT22;50167;47.958;21.780;2022-10-31T12:06:32;19.91;58.77
63976;DHT22;50167;47.958;21.780;2022-10-31T12:08:58;19.29;57.97
63976;DHT22;50167;47.958;21.780;2022-10-31T12:11:47;18.36;60.11
63976;DHT22;50167;47.958;21.780;2022-10-31T12:14:35;17.46;62.46
63976;DHT22;50167;47.958;21.780;2022-10-31T12:19:39;18.91;63.10
63976;DHT22;50167;47.958;21.780;2022-10-31T12:22:22;19.35;61.09
63976;DHT22;50167;47.958;21.780;2022-10-31T12:25:24;19.67;60.12
63976;DHT22;50167;47.958;21.780;2022-10-31T12:31:24;19.25;58.49
63976;DHT22;50167;47.958;21.780;2022-10-31T12:39:56;18.00;65.47
63976;DHT22;50167;47.958;21.780;2022-10-31T12:56:15;17.23;63.22
63976;DHT22;50167;47.958;21.780;2022-10-31T12:58:51;17.88;65.98
63976;DHT22;50167;47.958;21.780;2022-10-31T13:01:30;18.87;62.86
63976;DHT22;50167;47.958;21.780;2022-10-31T13:04:00;19.27;60.90
63976;DHT22;50167;47.958;21.780;2022-10-31T13:06:40;19.55;60.17
63976;DHT22;50167;47.958;21.780;2022-10-31T13:09:13;19.78;59.18
63976;DHT22;50167;47.958;21.780;2022-10-31T13:11:45;19.31;57.58
63976;DHT22;50167;47.958;21.780;2022-10-31T13:17:06;17.29;62.04
63976;DHT22;50167;47.958;21.780;2022-10-31T13:19:43;17.56;64.53
63976;DHT22;50167;47.958;21.780;2022-10-31T13:22:22;18.49;63.05
63976;DHT22;50167;47.958;21.780;2022-10-31T13:25:17;19.15;61.34
63976;DHT22;50167;47.958;21.780;2022-10-31T13:27:58;19.45;60.27
63976;DHT22;50167;47.958;21.780;2022-10-31T13:30:28;19.56;59.33
63976;DHT22;50167;47.958;21.780;2022-10-31T13:41:14;17.57;65.36
63976;DHT22;50167;47.958;21.780;2022-10-31T13:44:06;18.60;63.35
63976;DHT22;50167;47.958;21.780;2022-10-31T13:46:37;19.04;61.06
63976;DHT22;50167;47.958;21.780;2022-10-31T13:49:18;19.39;60.32
63976;DHT22;50167;47.958;21.780;2022-10-31T13:51:33;19.59;59.27
63976;DHT22;50167;47.958;21.780;2022-10-31T13:54:33;19.18;57.97
63976;DHT22;50167;47.958;21.780;2022-10-31T13:57:00;17.98;60.07
63976;DHT22;50167;47.958;21.780;2022-10-31T13:59:28;17.21;62.08
63976;DHT22;50167;47.958;21.780;2022-10-31T14:01:59;17.53;64.86
63976;DHT22;50167;47.958;21.780;2022-10-31T14:04:36;18.50;63.11
63976;DHT22;50167;47.958;21.780;2022-10-31T14:07:15;19.12;61.12
63976;DHT22;50167;47.958;21.780;2022-10-31T14:10:05;19.55;59.70
63976;DHT22;50167;47.958;21.780;2022-10-31T14:12:43;19.84;58.73
63976;DHT22;50167;47.958;21.780;2022-10-31T14:15:25;19.27;57.88
63976;DHT22;50167;47.958;21.780;2022-10-31T14:18:06;18.18;59.82
63976;DHT22;50167;47.958;21.780;2022-10-31T14:20:43;17.21;61.91
63976;DHT22;50167;47.958;21.780;2022-10-31T14:29:20;18.95;61.10
63976;DHT22;50167;47.958;21.780;2022-10-31T14:31:36;19.44;59.57
63976;DHT22;50167;47.958;21.780;2022-10-31T14:42:53;17.45;65.56
63976;DHT22;50167;47.958;21.780;2022-10-31T14:48:30;19.29;60.04
63976;DHT22;50167;47.958;21.780;2022-10-31T14:51:01;19.59;58.93
63976;DHT22;50167;47.958;21.780;2022-10-31T14:53:53;19.08;57.94
63976;DHT22;50167;47.958;21.780;2022-10-31T14:56:35;17.94;60.19
63976;DHT22;50167;47.958;21.780;2022-10-31T14:59:08;17.09;62.44
63976;DHT22;50167;47.958;21.780;2022-10-31T15:01:36;17.45;65.23
63976;DHT22;50167;47.958;21.780;2022-10-31T15:04:20;18.53;63.07
63976;DHT22;50167;47.958;21.780;2022-10-31T15:07:07;19.14;60.95
63976;DHT22;50167;47.958;21.780;2022-10-31T15:09:36;19.48;59.51
63976;DHT22;50167;47.958;21.780;2022-10-31T15:12:32;19.12;58.20
63976;DHT22;50167;47.958;21.780;2022-10-31T15:15:14;17.91;60.25
63976;DHT22;50167;47.958;21.780;2022-10-31T15:17:48;17.01;62.53
63976;DHT22;50167;47.958;21.780;2022-10-31T15:20:29;17.36;65.65
63976;DHT22;50167;47.958;21.780;2022-10-31T15:22:57;18.41;63.42
63976;DHT22;50167;47.958;21.780;2022-10-31T15:25:34;18.97;61.32
63976;DHT22;50167;47.958;21.780;2022-10-31T15:27:58;19.27;60.01
63976;DHT22;50167;47.958;21.780;2022-10-31T15:30:27;19.46;59.04
63976;DHT22;50167;47.958;21.780;2022-10-31T15:32:54;19.00;57.49
63976;DHT22;50167;47.958;21.780;2022-10-31T15:35:29;17.87;59.68
63976;DHT22;50167;47.958;21.780;2022-10-31T15:37:57;16.88;63.08
63976;DHT22;50167;47.958;21.780;2022-10-31T15:40:26;17.19;65.51
63976;DHT22;50167;47.958;21.780;2022-10-31T15:43:00;18.08;63.59
63976;DHT22;50167;47.958;21.780;2022-10-31T15:45:28;18.63;61.71
63976;DHT22;50167;47.958;21.780;2022-10-31T15:48:13;18.95;60.74
63976;DHT22;50167;47.958;21.780;2022-10-31T15:50:41;19.22;60.04
63976;DHT22;50167;47.958;21.780;2022-10-31T15:53:24;19.46;59.19
63976;DHT22;50167;47.958;21.780;2022-10-31T15:55:57;18.88;58.25
63976;DHT22;50167;47.958;21.780;2022-10-31T15:58:46;17.81;60.44
63976;DHT22;50167;47.958;21.780;2022-10-31T16:01:32;16.91;62.63
63976;DHT22;50167;47.958;21.780;2022-10-31T16:06:39;18.12;63.88
63976;DHT22;50167;47.958;21.780;2022-10-31T16:09:22;18.59;61.93
63976;DHT22;50167;47.958;21.780;2022-10-31T16:11:48;18.91;60.84
63976;DHT22;50167;47.958;21.780;2022-10-31T16:14:18;19.18;59.88
63976;DHT22;50167;47.958;21.780;2022-10-31T16:16:49;19.39;59.09
63976;DHT22;50167;47.958;21.780;2022-10-31T16:19:25;18.87;57.95
63976;DHT22;50167;47.958;21.780;2022-10-31T16:22:11;17.78;60.11
63976;DHT22;50167;47.958;21.780;2022-10-31T16:25:08;16.86;62.61
63976;DHT22;50167;47.958;21.780;2022-10-31T16:27:35;17.30;65.37
63976;DHT22;50167;47.958;21.780;2022-10-31T16:32:59;18.83;61.12
63976;DHT22;50167;47.958;21.780;2022-10-31T16:35:38;19.07;60.22
63976;DHT22;50167;47.958;21.780;2022-10-31T16:38:05;19.25;59.48
63976;DHT22;50167;47.958;21.780;2022-10-31T16:40:31;18.83;58.47
63976;DHT22;50167;47.958;21.780;2022-10-31T16:43:00;17.83;59.95
63976;DHT22;50167;47.958;21.780;2022-10-31T16:45:30;16.98;62.08
63976;DHT22;50167;47.958;21.780;2022-10-31T16:48:06;17.25;65.19
63976;DHT22;50167;47.958;21.780;2022-10-31T16:50:32;18.21;63.29
63976;DHT22;50167;47.958;21.780;2022-10-31T16:52:58;18.74;61.31
63976;DHT22;50167;47.958;21.780;2022-10-31T16:55:24;18.97;60.28
63976;DHT22;50167;47.958;21.780;2022-10-31T16:57:53;19.19;59.55
63976;DHT22;50167;47.958;21.780;2022-10-31T17:00:25;18.80;58.62
63976;DHT22;50167;47.958;21.780;2022-10-31T17:02:55;17.66;60.02
63976;DHT22;50167;47.958;21.780;2022-10-31T17:05:23;16.81;62.37
63976;DHT22;50167;47.958;21.780;2022-10-31T17:07:56;17.04;65.62
63976;DHT22;50167;47.958;21.780;2022-10-31T17:10:23;18.05;63.99
63976;DHT22;50167;47.958;21.780;2022-10-31T17:13:16;18.67;61.92
63976;DHT22;50167;47.958;21.780;2022-10-31T17:15:54;19.05;60.47
63976;DHT22;50167;47.958;21.780;2022-10-31T17:18:21;19.32;59.46
63976;DHT22;50167;47.958;21.780;2022-10-31T17:20:48;18.90;58.46
63976;DHT22;50167;47.958;21.780;2022-10-31T17:23:16;17.84;60.37
63976;DHT22;50167;47.958;21.780;2022-10-31T17:25:42;16.92;62.43
63976;DHT22;50167;47.958;21.780;2022-10-31T17:28:13;17.15;65.71
63976;DHT22;50167;47.958;21.780;2022-10-31T17:30:42;18.01;64.13
63976;DHT22;50167;47.958;21.780;2022-10-31T17:33:12;18.52;62.29
63976;DHT22;50167;47.958;21.780;2022-10-31T17:35:41;18.84;61.18
63976;DHT22;50167;47.958;21.780;2022-10-31T17:38:07;19.01;60.30
63976;DHT22;50167;47.958;21.780;2022-10-31T17:40:37;19.21;59.93
63976;DHT22;50167;47.958;21.780;2022-10-31T17:43:04;19.35;59.40